sensor_id;sensor_type;location;lat;lon;timestamp;pressure;altitude;pressure_sealevel;temperature;humidity
62926;BME280;55732;52.248;-0.844;2022-11-13T00:00:56;101513.27;;;9.77;95.06
62926;BME280;55732;52.248;-0.844;2022-11-13T00:03:22;101517.14;;;9.77;95.35
62926;BME280;55732;52.248;-0.844;2022-11-13T00:05:57;101516.62;;;9.77;95.42
62926;BME280;55732;52.248;-0.844;2022-11-13T00:08:23;101530.54;;;9.79;95.46
62926;BME280;55732;52.248;-0.844;2022-11-13T00:10:48;101536.73;;;9.82;95.43
62926;BME280;55732;52.248;-0.844;2022-11-13T00:13:13;101536.38;;;9.82;95.36
62926;BME280;55732;52.248;-0.844;2022-11-13T00:15:39;101529.34;;;9.82;95.55
62926;BME280;55732;52.248;-0.844;2022-11-13T00:18:04;101533.59;;;9.84;95.51
62926;BME280;55732;52.248;-0.844;2022-11-13T00:20:30;101536.79;;;9.85;95.39
62926;BME280;55732;52.248;-0.844;2022-11-13T00:22:55;101527.39;;;9.81;95.12
62926;BME280;55732;52.248;-0.844;2022-11-13T00:25:20;101537.81;;;9.84;94.84
62926;BME280;55732;52.248;-0.844;2022-11-13T00:27:46;101541.83;;;9.82;94.65
62926;BME280;55732;52.248;-0.844;2022-11-13T00:30:11;101532.24;;;9.77;94.46
62926;BME280;55732;52.248;-0.844;2022-11-13T00:32:37;101534.91;;;9.78;93.99
62926;BME280;55732;52.248;-0.844;2022-11-13T00:35:05;101531.89;;;9.76;93.96
62926;BME280;55732;52.248;-0.844;2022-11-13T00:37:30;101524.44;;;9.72;93.81
62926;BME280;55732;52.248;-0.844;2022-11-13T00:39:56;101527.17;;;9.68;93.59
62926;BME280;55732;52.248;-0.844;2022-11-13T00:42:21;101527.10;;;9.64;93.88
62926;BME280;55732;52.248;-0.844;2022-11-13T00:44:46;101532.02;;;9.63;94.01
62926;BME280;55732;52.248;-0.844;2022-11-13T00:47:12;101530.58;;;9.62;94.23
62926;BME280;55732;52.248;-0.844;2022-11-13T00:49:38;101533.21;;;9.61;94.06
62926;BME280;55732;52.248;-0.844;2022-11-13T00:52:03;101530.36;;;9.60;94.05
62926;BME280;55732;52.248;-0.844;2022-11-13T00:54:29;101523.95;;;9.55;94.26
62926;BME280;55732;52.248;-0.844;2022-11-13T00:56:54;101528.51;;;9.54;94.83
62926;BME280;55732;52.248;-0.844;2022-11-13T00:59:20;101527.84;;;9.55;95.33
62926;BME280;55732;52.248;-0.844;2022-11-13T01:01:45;101529.77;;;9.57;95.38
62926;BME280;55732;52.248;-0.844;2022-11-13T01:04:10;101533.34;;;9.59;95.72
62926;BME280;55732;52.248;-0.844;2022-11-13T01:06:36;101526.35;;;9.61;95.84
62926;BME280;55732;52.248;-0.844;2022-11-13T01:09:01;101525.08;;;9.59;96.13
62926;BME280;55732;52.248;-0.844;2022-11-13T01:11:28;101524.52;;;9.57;95.93
62926;BME280;55732;52.248;-0.844;2022-11-13T01:13:55;101525.03;;;9.57;95.88
62926;BME280;55732;52.248;-0.844;2022-11-13T01:16:24;101519.05;;;9.55;95.70
62926;BME280;55732;52.248;-0.844;2022-11-13T01:18:52;101520.43;;;9.54;95.54
62926;BME280;55732;52.248;-0.844;2022-11-13T01:21:21;101518.23;;;9.50;95.61
62926;BME280;55732;52.248;-0.844;2022-11-13T01:23:46;101518.73;;;9.49;95.77
62926;BME280;55732;52.248;-0.844;2022-11-13T01:26:18;101516.23;;;9.46;95.65
62926;BME280;55732;52.248;-0.844;2022-11-13T01:28:44;101519.71;;;9.45;95.97
62926;BME280;55732;52.248;-0.844;2022-11-13T01:31:13;101513.88;;;9.42;95.72
62926;BME280;55732;52.248;-0.844;2022-11-13T01:33:39;101509.20;;;9.36;95.78
62926;BME280;55732;52.248;-0.844;2022-11-13T01:36:12;101514.02;;;9.31;96.07
62926;BME280;55732;52.248;-0.844;2022-11-13T01:38:38;101513.27;;;9.28;96.29
62926;BME280;55732;52.248;-0.844;2022-11-13T01:41:04;101510.45;;;9.28;96.36
62926;BME280;55732;52.248;-0.844;2022-11-13T01:43:35;101509.95;;;9.29;96.63
62926;BME280;55732;52.248;-0.844;2022-11-13T01:46:07;101511.02;;;9.30;96.67
62926;BME280;55732;52.248;-0.844;2022-11-13T01:48:39;101509.80;;;9.30;96.84
62926;BME280;55732;52.248;-0.844;2022-11-13T01:51:12;101506.84;;;9.32;96.88
62926;BME280;55732;52.248;-0.844;2022-11-13T01:53:40;101505.80;;;9.33;97.00
62926;BME280;55732;52.248;-0.844;2022-11-13T01:56:06;101501.27;;;9.36;97.18
62926;BME280;55732;52.248;-0.844;2022-11-13T01:58:32;101495.71;;;9.38;97.12
62926;BME280;55732;52.248;-0.844;2022-11-13T02:00:58;101490.48;;;9.41;97.31
62926;BME280;55732;52.248;-0.844;2022-11-13T02:03:23;101488.41;;;9.44;97.22
62926;BME280;55732;52.248;-0.844;2022-11-13T02:05:49;101491.59;;;9.45;97.26
62926;BME280;55732;52.248;-0.844;2022-11-13T02:08:16;101489.69;;;9.47;97.40
62926;BME280;55732;52.248;-0.844;2022-11-13T02:10:41;101489.88;;;9.48;97.18
62926;BME280;55732;52.248;-0.844;2022-11-13T02:13:08;101490.09;;;9.49;97.16
62926;BME280;55732;52.248;-0.844;2022-11-13T02:15:34;101483.59;;;9.49;97.09
62926;BME280;55732;52.248;-0.844;2022-11-13T02:18:01;101484.48;;;9.50;97.30
62926;BME280;55732;52.248;-0.844;2022-11-13T02:23:11;101469.05;;;9.52;97.41
62926;BME280;55732;52.248;-0.844;2022-11-13T02:25:38;101471.71;;;9.53;97.72
62926;BME280;55732;52.248;-0.844;2022-11-13T02:28:05;101473.87;;;9.57;98.03
62926;BME280;55732;52.248;-0.844;2022-11-13T02:30:32;101472.86;;;9.60;97.96
62926;BME280;55732;52.248;-0.844;2022-11-13T02:32:58;101471.18;;;9.63;98.13
62926;BME280;55732;52.248;-0.844;2022-11-13T02:35:32;101469.48;;;9.68;98.48
62926;BME280;55732;52.248;-0.844;2022-11-13T02:38:01;101477.33;;;9.74;98.69
62926;BME280;55732;52.248;-0.844;2022-11-13T02:40:28;101479.71;;;9.79;98.67
62926;BME280;55732;52.248;-0.844;2022-11-13T02:42:54;101481.19;;;9.85;98.70
62926;BME280;55732;52.248;-0.844;2022-11-13T02:45:20;101471.42;;;9.89;98.59
62926;BME280;55732;52.248;-0.844;2022-11-13T02:47:45;101469.19;;;9.93;98.54
62926;BME280;55732;52.248;-0.844;2022-11-13T02:50:11;101466.64;;;9.98;98.65
62926;BME280;55732;52.248;-0.844;2022-11-13T02:52:37;101464.77;;;10.02;98.65
62926;BME280;55732;52.248;-0.844;2022-11-13T02:55:03;101462.56;;;10.08;98.76
62926;BME280;55732;52.248;-0.844;2022-11-13T02:57:29;101462.48;;;10.13;98.68
62926;BME280;55732;52.248;-0.844;2022-11-13T02:59:54;101462.14;;;10.16;98.48
62926;BME280;55732;52.248;-0.844;2022-11-13T03:02:19;101464.02;;;10.21;98.67
62926;BME280;55732;52.248;-0.844;2022-11-13T03:04:45;101458.98;;;10.25;98.66
62926;BME280;55732;52.248;-0.844;2022-11-13T03:07:11;101456.35;;;10.27;98.67
62926;BME280;55732;52.248;-0.844;2022-11-13T03:09:38;101457.65;;;10.31;98.69
62926;BME280;55732;52.248;-0.844;2022-11-13T03:12:04;101455.40;;;10.34;98.49
62926;BME280;55732;52.248;-0.844;2022-11-13T03:14:29;101456.84;;;10.36;98.52
62926;BME280;55732;52.248;-0.844;2022-11-13T03:16:55;101458.62;;;10.36;98.40
62926;BME280;55732;52.248;-0.844;2022-11-13T03:19:20;101464.08;;;10.37;98.37
62926;BME280;55732;52.248;-0.844;2022-11-13T03:21:46;101468.48;;;10.38;98.38
62926;BME280;55732;52.248;-0.844;2022-11-13T03:24:11;101474.13;;;10.38;98.46
62926;BME280;55732;52.248;-0.844;2022-11-13T03:26:36;101469.38;;;10.39;98.45
62926;BME280;55732;52.248;-0.844;2022-11-13T03:29:02;101464.45;;;10.40;98.53
62926;BME280;55732;52.248;-0.844;2022-11-13T03:31:27;101458.83;;;10.40;98.50
62926;BME280;55732;52.248;-0.844;2022-11-13T03:33:53;101451.23;;;10.39;98.55
62926;BME280;55732;52.248;-0.844;2022-11-13T03:36:18;101448.07;;;10.40;98.53
62926;BME280;55732;52.248;-0.844;2022-11-13T03:38:44;101441.58;;;10.41;98.70
62926;BME280;55732;52.248;-0.844;2022-11-13T03:41:10;101439.67;;;10.43;98.85
62926;BME280;55732;52.248;-0.844;2022-11-13T03:43:39;101441.30;;;10.45;99.02
62926;BME280;55732;52.248;-0.844;2022-11-13T03:46:04;101437.81;;;10.48;98.98
62926;BME280;55732;52.248;-0.844;2022-11-13T03:48:29;101430.61;;;10.48;98.91
62926;BME280;55732;52.248;-0.844;2022-11-13T03:50:55;101420.34;;;10.46;98.99
62926;BME280;55732;52.248;-0.844;2022-11-13T03:53:20;101426.56;;;10.51;98.88
62926;BME280;55732;52.248;-0.844;2022-11-13T03:55:46;101422.89;;;10.53;98.94
62926;BME280;55732;52.248;-0.844;2022-11-13T03:58:12;101418.70;;;10.55;99.12
62926;BME280;55732;52.248;-0.844;2022-11-13T04:00:40;101417.46;;;10.56;99.12
62926;BME280;55732;52.248;-0.844;2022-11-13T04:03:06;101406.67;;;10.52;99.18
62926;BME280;55732;52.248;-0.844;2022-11-13T04:05:32;101415.05;;;10.58;99.41
62926;BME280;55732;52.248;-0.844;2022-11-13T04:07:58;101415.96;;;10.61;99.50
62926;BME280;55732;52.248;-0.844;2022-11-13T04:10:24;101415.27;;;10.63;99.68
62926;BME280;55732;52.248;-0.844;2022-11-13T04:12:50;101415.66;;;10.66;99.74
62926;BME280;55732;52.248;-0.844;2022-11-13T04:15:15;101414.11;;;10.68;99.57
62926;BME280;55732;52.248;-0.844;2022-11-13T04:17:41;101412.36;;;10.70;99.59
62926;BME280;55732;52.248;-0.844;2022-11-13T04:20:07;101415.73;;;10.71;99.63
62926;BME280;55732;52.248;-0.844;2022-11-13T04:22:33;101404.77;;;10.68;99.77
62926;BME280;55732;52.248;-0.844;2022-11-13T04:24:58;101413.80;;;10.74;99.94
62926;BME280;55732;52.248;-0.844;2022-11-13T04:27:24;101406.79;;;10.76;99.94
62926;BME280;55732;52.248;-0.844;2022-11-13T04:29:49;101407.33;;;10.77;99.77
62926;BME280;55732;52.248;-0.844;2022-11-13T04:32:15;101401.17;;;10.78;99.78
62926;BME280;55732;52.248;-0.844;2022-11-13T04:34:40;101398.88;;;10.77;99.86
62926;BME280;55732;52.248;-0.844;2022-11-13T04:37:06;101399.90;;;10.75;99.96
62926;BME280;55732;52.248;-0.844;2022-11-13T04:39:31;101400.08;;;10.75;99.99
62926;BME280;55732;52.248;-0.844;2022-11-13T04:41:56;101399.02;;;10.75;100.00
62926;BME280;55732;52.248;-0.844;2022-11-13T04:44:40;101397.77;;;10.73;100.00
62926;BME280;55732;52.248;-0.844;2022-11-13T04:47:06;101395.98;;;10.70;100.00
62926;BME280;55732;52.248;-0.844;2022-11-13T04:49:31;101389.11;;;10.69;100.00
62926;BME280;55732;52.248;-0.844;2022-11-13T04:51:57;101383.48;;;10.69;100.00
62926;BME280;55732;52.248;-0.844;2022-11-13T04:54:22;101378.19;;;10.69;100.00
62926;BME280;55732;52.248;-0.844;2022-11-13T04:56:47;101372.55;;;10.68;100.00
62926;BME280;55732;52.248;-0.844;2022-11-13T04:59:13;101371.67;;;10.69;100.00
62926;BME280;55732;52.248;-0.844;2022-11-13T05:01:38;101369.39;;;10.70;100.00
62926;BME280;55732;52.248;-0.844;2022-11-13T05:04:04;101367.98;;;10.70;100.00
62926;BME280;55732;52.248;-0.844;2022-11-13T05:06:29;101366.57;;;10.69;100.00
62926;BME280;55732;52.248;-0.844;2022-11-13T05:08:55;101360.91;;;10.68;100.00
62926;BME280;55732;52.248;-0.844;2022-11-13T05:11:21;101349.44;;;10.66;100.00
62926;BME280;55732;52.248;-0.844;2022-11-13T05:13:46;101344.50;;;10.65;100.00
62926;BME280;55732;52.248;-0.844;2022-11-13T05:16:13;101343.08;;;10.65;100.00
62926;BME280;55732;52.248;-0.844;2022-11-13T05:18:39;101337.60;;;10.62;100.00
62926;BME280;55732;52.248;-0.844;2022-11-13T05:21:06;101332.14;;;10.62;100.00
62926;BME280;55732;52.248;-0.844;2022-11-13T05:23:33;101330.73;;;10.62;100.00
62926;BME280;55732;52.248;-0.844;2022-11-13T05:26:03;101331.61;;;10.61;100.00
62926;BME280;55732;52.248;-0.844;2022-11-13T05:28:28;101331.42;;;10.60;100.00
62926;BME280;55732;52.248;-0.844;2022-11-13T05:31:03;101334.92;;;10.58;100.00
62926;BME280;55732;52.248;-0.844;2022-11-13T05:33:29;101341.08;;;10.58;100.00
62926;BME280;55732;52.248;-0.844;2022-11-13T05:36:00;101339.29;;;10.56;100.00
62926;BME280;55732;52.248;-0.844;2022-11-13T05:38:27;101339.10;;;10.55;100.00
62926;BME280;55732;52.248;-0.844;2022-11-13T05:40:52;101333.63;;;10.53;100.00
62926;BME280;55732;52.248;-0.844;2022-11-13T05:43:17;101325.85;;;10.51;100.00
62926;BME280;55732;52.248;-0.844;2022-11-13T05:45:43;101321.98;;;10.50;100.00
62926;BME280;55732;52.248;-0.844;2022-11-13T05:48:08;101324.45;;;10.49;100.00
62926;BME280;55732;52.248;-0.844;2022-11-13T05:50:34;101317.58;;;10.49;100.00
62926;BME280;55732;52.248;-0.844;2022-11-13T05:52:59;101313.35;;;10.49;100.00
62926;BME280;55732;52.248;-0.844;2022-11-13T05:55:24;101302.25;;;10.48;100.00
62926;BME280;55732;52.248;-0.844;2022-11-13T05:57:50;101304.90;;;10.49;100.00
62926;BME280;55732;52.248;-0.844;2022-11-13T06:00:16;101303.13;;;10.48;100.00
62926;BME280;55732;52.248;-0.844;2022-11-13T06:02:41;101304.02;;;10.48;100.00
62926;BME280;55732;52.248;-0.844;2022-11-13T06:05:07;101302.25;;;10.48;100.00
62926;BME280;55732;52.248;-0.844;2022-11-13T06:07:33;101300.31;;;10.48;100.00
62926;BME280;55732;52.248;-0.844;2022-11-13T06:09:58;101298.03;;;10.49;100.00
62926;BME280;55732;52.248;-0.844;2022-11-13T06:12:23;101296.45;;;10.50;100.00
62926;BME280;55732;52.248;-0.844;2022-11-13T06:14:49;101298.02;;;10.51;100.00
62926;BME280;55732;52.248;-0.844;2022-11-13T06:17:14;101303.86;;;10.53;100.00
62926;BME280;55732;52.248;-0.844;2022-11-13T06:19:40;101300.73;;;10.55;100.00
62926;BME280;55732;52.248;-0.844;2022-11-13T06:22:05;101295.98;;;10.56;100.00
62926;BME280;55732;52.248;-0.844;2022-11-13T06:24:30;101292.82;;;10.57;100.00
62926;BME280;55732;52.248;-0.844;2022-11-13T06:26:56;101292.14;;;10.59;100.00
62926;BME280;55732;52.248;-0.844;2022-11-13T06:29:21;101295.33;;;10.60;100.00
62926;BME280;55732;52.248;-0.844;2022-11-13T06:31:47;101296.39;;;10.61;100.00
62926;BME280;55732;52.248;-0.844;2022-11-13T06:34:12;101294.98;;;10.62;100.00
62926;BME280;55732;52.248;-0.844;2022-11-13T06:36:38;101297.10;;;10.63;100.00
62926;BME280;55732;52.248;-0.844;2022-11-13T06:39:08;101299.59;;;10.66;100.00
62926;BME280;55732;52.248;-0.844;2022-11-13T06:41:33;101299.25;;;10.67;100.00
62926;BME280;55732;52.248;-0.844;2022-11-13T06:43:59;101295.76;;;10.68;100.00
62926;BME280;55732;52.248;-0.844;2022-11-13T06:46:27;101294.89;;;10.70;100.00
62926;BME280;55732;52.248;-0.844;2022-11-13T06:48:53;101293.11;;;10.69;100.00
62926;BME280;55732;52.248;-0.844;2022-11-13T06:51:22;101294.52;;;10.70;100.00
62926;BME280;55732;52.248;-0.844;2022-11-13T06:53:48;101293.31;;;10.70;100.00
62926;BME280;55732;52.248;-0.844;2022-11-13T06:56:14;101294.04;;;10.72;100.00
62926;BME280;55732;52.248;-0.844;2022-11-13T06:58:40;101297.38;;;10.74;100.00
62926;BME280;55732;52.248;-0.844;2022-11-13T07:01:10;101295.64;;;10.76;100.00
62926;BME280;55732;52.248;-0.844;2022-11-13T07:03:36;101299.86;;;10.76;100.00
62926;BME280;55732;52.248;-0.844;2022-11-13T07:06:08;101302.17;;;10.77;100.00
62926;BME280;55732;52.248;-0.844;2022-11-13T07:08:34;101300.79;;;10.79;100.00
62926;BME280;55732;52.248;-0.844;2022-11-13T07:11:00;101300.27;;;10.80;100.00
62926;BME280;55732;52.248;-0.844;2022-11-13T07:13:26;101302.04;;;10.81;100.00
62926;BME280;55732;52.248;-0.844;2022-11-13T07:15:52;101299.40;;;10.81;100.00
62926;BME280;55732;52.248;-0.844;2022-11-13T07:18:18;101297.13;;;10.82;100.00
62926;BME280;55732;52.248;-0.844;2022-11-13T07:20:44;101294.49;;;10.83;100.00
62926;BME280;55732;52.248;-0.844;2022-11-13T07:23:10;101297.51;;;10.84;100.00
62926;BME280;55732;52.248;-0.844;2022-11-13T07:25:35;101299.97;;;10.84;100.00
62926;BME280;55732;52.248;-0.844;2022-11-13T07:28:01;101303.12;;;10.83;100.00
62926;BME280;55732;52.248;-0.844;2022-11-13T07:30:26;101304.18;;;10.83;100.00
62926;BME280;55732;52.248;-0.844;2022-11-13T07:32:52;101302.96;;;10.84;100.00
62926;BME280;55732;52.248;-0.844;2022-11-13T07:35:18;101299.80;;;10.84;100.00
62926;BME280;55732;52.248;-0.844;2022-11-13T07:37:43;101299.08;;;10.86;100.00
62926;BME280;55732;52.248;-0.844;2022-11-13T07:40:09;101299.09;;;10.88;100.00
62926;BME280;55732;52.248;-0.844;2022-11-13T07:42:35;101301.91;;;10.89;100.00
62926;BME280;55732;52.248;-0.844;2022-11-13T07:45:01;101302.81;;;10.90;100.00
62926;BME280;55732;52.248;-0.844;2022-11-13T07:47:26;101302.65;;;10.91;100.00
62926;BME280;55732;52.248;-0.844;2022-11-13T07:49:52;101301.41;;;10.91;100.00
62926;BME280;55732;52.248;-0.844;2022-11-13T07:52:17;101306.00;;;10.92;100.00
62926;BME280;55732;52.248;-0.844;2022-11-13T07:54:43;101306.90;;;10.92;100.00
62926;BME280;55732;52.248;-0.844;2022-11-13T07:57:08;101312.73;;;10.94;100.00
62926;BME280;55732;52.248;-0.844;2022-11-13T07:59:34;101314.85;;;10.94;100.00
62926;BME280;55732;52.248;-0.844;2022-11-13T08:01:59;101313.60;;;10.94;100.00
62926;BME280;55732;52.248;-0.844;2022-11-13T08:04:25;101310.79;;;10.94;100.00
62926;BME280;55732;52.248;-0.844;2022-11-13T08:06:50;101310.28;;;10.96;100.00
62926;BME280;55732;52.248;-0.844;2022-11-13T08:09:16;101304.12;;;10.97;100.00
62926;BME280;55732;52.248;-0.844;2022-11-13T08:11:41;101302.89;;;10.99;100.00
62926;BME280;55732;52.248;-0.844;2022-11-13T08:14:07;101299.55;;;11.00;100.00
62926;BME280;55732;52.248;-0.844;2022-11-13T08:16:32;101300.62;;;11.01;100.00
62926;BME280;55732;52.248;-0.844;2022-11-13T08:18:57;101303.07;;;11.00;100.00
62926;BME280;55732;52.248;-0.844;2022-11-13T08:21:23;101302.36;;;10.99;100.00
62926;BME280;55732;52.248;-0.844;2022-11-13T08:23:48;101302.01;;;10.99;100.00
62926;BME280;55732;52.248;-0.844;2022-11-13T08:26:16;101300.96;;;11.00;100.00
62926;BME280;55732;52.248;-0.844;2022-11-13T08:28:42;101298.16;;;11.02;100.00
62926;BME280;55732;52.248;-0.844;2022-11-13T08:31:12;101292.89;;;11.03;100.00
62926;BME280;55732;52.248;-0.844;2022-11-13T08:33:39;101293.06;;;11.03;100.00
62926;BME280;55732;52.248;-0.844;2022-11-13T08:36:05;101296.77;;;11.02;100.00
62926;BME280;55732;52.248;-0.844;2022-11-13T08:38:30;101297.98;;;11.02;100.00
62926;BME280;55732;52.248;-0.844;2022-11-13T08:40:57;101296.75;;;11.02;100.00
62926;BME280;55732;52.248;-0.844;2022-11-13T08:43:22;101294.82;;;11.03;100.00
62926;BME280;55732;52.248;-0.844;2022-11-13T08:45:48;101292.70;;;11.02;100.00
62926;BME280;55732;52.248;-0.844;2022-11-13T08:48:13;101295.36;;;11.04;100.00
62926;BME280;55732;52.248;-0.844;2022-11-13T08:50:39;101290.09;;;11.05;100.00
62926;BME280;55732;52.248;-0.844;2022-11-13T08:53:05;101291.84;;;11.04;100.00
62926;BME280;55732;52.248;-0.844;2022-11-13T08:55:32;101295.49;;;11.00;100.00
62926;BME280;55732;52.248;-0.844;2022-11-13T08:57:59;101293.19;;;10.97;100.00
62926;BME280;55732;52.248;-0.844;2022-11-13T09:00:25;101292.11;;;10.94;100.00
62926;BME280;55732;52.248;-0.844;2022-11-13T09:02:57;101292.13;;;10.95;100.00
62926;BME280;55732;52.248;-0.844;2022-11-13T09:05:24;101288.61;;;10.99;100.00
62926;BME280;55732;52.248;-0.844;2022-11-13T09:07:50;101283.02;;;11.03;100.00
62926;BME280;55732;52.248;-0.844;2022-11-13T09:10:16;101280.58;;;11.06;100.00
62926;BME280;55732;52.248;-0.844;2022-11-13T09:12:43;101281.84;;;11.08;100.00
62926;BME280;55732;52.248;-0.844;2022-11-13T09:15:09;101284.83;;;11.10;100.00
62926;BME280;55732;52.248;-0.844;2022-11-13T09:17:35;101284.50;;;11.12;100.00
62926;BME280;55732;52.248;-0.844;2022-11-13T09:20:00;101284.52;;;11.14;100.00
62926;BME280;55732;52.248;-0.844;2022-11-13T09:22:26;101282.55;;;11.11;99.68
62926;BME280;55732;52.248;-0.844;2022-11-13T09:24:51;101280.59;;;11.06;99.37
62926;BME280;55732;52.248;-0.844;2022-11-13T09:27:17;101276.66;;;11.02;99.49
62926;BME280;55732;52.248;-0.844;2022-11-13T09:29:42;101276.98;;;10.99;99.66
62926;BME280;55732;52.248;-0.844;2022-11-13T09:32:08;101271.52;;;10.96;99.68
62926;BME280;55732;52.248;-0.844;2022-11-13T09:34:33;101271.87;;;10.96;99.97
62926;BME280;55732;52.248;-0.844;2022-11-13T09:36:59;101272.02;;;10.94;99.90
62926;BME280;55732;52.248;-0.844;2022-11-13T09:39:24;101273.07;;;10.92;99.95
62926;BME280;55732;52.248;-0.844;2022-11-13T09:42:13;101276.95;;;10.92;99.99
62926;BME280;55732;52.248;-0.844;2022-11-13T09:44:48;101276.09;;;10.95;100.00
62926;BME280;55732;52.248;-0.844;2022-11-13T09:47:31;101275.94;;;10.99;100.00
62926;BME280;55732;52.248;-0.844;2022-11-13T09:50:32;101271.36;;;11.01;100.00
62926;BME280;55732;52.248;-0.844;2022-11-13T09:52:57;101271.02;;;11.00;100.00
62926;BME280;55732;52.248;-0.844;2022-11-13T09:55:29;101274.68;;;10.96;99.99
62926;BME280;55732;52.248;-0.844;2022-11-13T09:58:09;101276.59;;;10.92;100.00
62926;BME280;55732;52.248;-0.844;2022-11-13T10:00:37;101279.71;;;10.88;100.00
62926;BME280;55732;52.248;-0.844;2022-11-13T10:08:29;101286.60;;;10.90;99.91
62926;BME280;55732;52.248;-0.844;2022-11-13T10:13:26;101284.81;;;10.87;99.97
62926;BME280;55732;52.248;-0.844;2022-11-13T10:16:03;101285.68;;;10.86;99.99
62926;BME280;55732;52.248;-0.844;2022-11-13T10:18:34;101283.76;;;10.86;99.95
62926;BME280;55732;52.248;-0.844;2022-11-13T10:21:30;101281.08;;;10.81;99.88
62926;BME280;55732;52.248;-0.844;2022-11-13T10:24:07;101278.55;;;10.76;99.94
62926;BME280;55732;52.248;-0.844;2022-11-13T10:26:35;101283.27;;;10.71;99.85
62926;BME280;55732;52.248;-0.844;2022-11-13T10:29:20;101282.55;;;10.69;99.91
62926;BME280;55732;52.248;-0.844;2022-11-13T10:31:51;101278.13;;;10.68;99.96
62926;BME280;55732;52.248;-0.844;2022-11-13T10:34:17;101272.70;;;10.70;99.98
62926;BME280;55732;52.248;-0.844;2022-11-13T10:39:43;101272.96;;;10.80;99.96
62926;BME280;55732;52.248;-0.844;2022-11-13T10:42:23;101266.31;;;10.84;99.62
62926;BME280;55732;52.248;-0.844;2022-11-13T10:44:57;101266.66;;;10.84;99.62
62926;BME280;55732;52.248;-0.844;2022-11-13T10:47:24;101259.45;;;10.87;99.52
62926;BME280;55732;52.248;-0.844;2022-11-13T10:49:50;101255.93;;;10.88;99.26
62926;BME280;55732;52.248;-0.844;2022-11-13T10:52:25;101253.48;;;10.90;99.15
62926;BME280;55732;52.248;-0.844;2022-11-13T10:57:37;101237.95;;;10.85;98.95
62926;BME280;55732;52.248;-0.844;2022-11-13T11:00:18;101233.21;;;10.88;99.04
62926;BME280;55732;52.248;-0.844;2022-11-13T11:02:48;101229.23;;;10.98;99.19
62926;BME280;55732;52.248;-0.844;2022-11-13T11:05:17;101226.98;;;11.04;99.15
62926;BME280;55732;52.248;-0.844;2022-11-13T11:07:43;101222.06;;;11.04;98.78
62926;BME280;55732;52.248;-0.844;2022-11-13T11:10:20;101216.92;;;11.03;98.77
62926;BME280;55732;52.248;-0.844;2022-11-13T11:12:55;101210.03;;;11.00;98.87
62926;BME280;55732;52.248;-0.844;2022-11-13T11:17:53;101188.32;;;10.92;98.74
62926;BME280;55732;52.248;-0.844;2022-11-13T11:31:23;101144.96;;;11.22;98.72
62926;BME280;55732;52.248;-0.844;2022-11-13T11:34:54;101140.41;;;11.26;98.60
62926;BME280;55732;52.248;-0.844;2022-11-13T11:45:28;101130.16;;;11.21;98.45
62926;BME280;55732;52.248;-0.844;2022-11-13T11:47:57;101130.70;;;11.24;98.30
62926;BME280;55732;52.248;-0.844;2022-11-13T11:53:12;101123.67;;;11.28;98.27
62926;BME280;55732;52.248;-0.844;2022-11-13T12:01:00;101107.92;;;11.16;97.84
62926;BME280;55732;52.248;-0.844;2022-11-13T12:06:27;101096.86;;;11.25;98.10
62926;BME280;55732;52.248;-0.844;2022-11-13T12:11:46;101088.98;;;11.39;97.73
62926;BME280;55732;52.248;-0.844;2022-11-13T12:20:23;101075.80;;;11.50;97.27
62926;BME280;55732;52.248;-0.844;2022-11-13T12:28:15;101075.80;;;11.50;97.48
62926;BME280;55732;52.248;-0.844;2022-11-13T12:36:16;101066.45;;;11.43;97.12
62926;BME280;55732;52.248;-0.844;2022-11-13T12:39:13;101063.08;;;11.40;97.39
62926;BME280;55732;52.248;-0.844;2022-11-13T12:41:50;101059.55;;;11.40;97.32
62926;BME280;55732;52.248;-0.844;2022-11-13T12:44:27;101066.61;;;11.41;97.53
62926;BME280;55732;52.248;-0.844;2022-11-13T12:46:55;101064.48;;;11.45;97.65
62926;BME280;55732;52.248;-0.844;2022-11-13T12:52:11;101061.35;;;11.53;97.62
62926;BME280;55732;52.248;-0.844;2022-11-13T12:54:41;101063.11;;;11.54;97.41
62926;BME280;55732;52.248;-0.844;2022-11-13T12:59:47;101052.33;;;11.48;97.08
62926;BME280;55732;52.248;-0.844;2022-11-13T13:04:52;101040.69;;;11.46;97.29
62926;BME280;55732;52.248;-0.844;2022-11-13T13:13:38;101033.84;;;11.59;97.01
62926;BME280;55732;52.248;-0.844;2022-11-13T13:16:07;101032.25;;;11.62;96.76
62926;BME280;55732;52.248;-0.844;2022-11-13T13:18:38;101029.08;;;11.61;96.70
62926;BME280;55732;52.248;-0.844;2022-11-13T13:21:12;101029.09;;;11.63;96.91
62926;BME280;55732;52.248;-0.844;2022-11-13T13:23:51;101027.15;;;11.64;96.85
62926;BME280;55732;52.248;-0.844;2022-11-13T13:26:25;101023.45;;;11.64;96.94
62926;BME280;55732;52.248;-0.844;2022-11-13T13:29:01;101021.86;;;11.64;96.78
62926;BME280;55732;52.248;-0.844;2022-11-13T13:34:45;101024.67;;;11.54;97.07
62926;BME280;55732;52.248;-0.844;2022-11-13T13:37:48;101027.84;;;11.52;96.82
62926;BME280;55732;52.248;-0.844;2022-11-13T13:40:26;101025.72;;;11.52;96.91
62926;BME280;55732;52.248;-0.844;2022-11-13T13:48:01;101006.15;;;11.53;96.93
62926;BME280;55732;52.248;-0.844;2022-11-13T13:50:31;100998.38;;;11.57;97.05
62926;BME280;55732;52.248;-0.844;2022-11-13T13:52:58;100992.74;;;11.60;96.88
62926;BME280;55732;52.248;-0.844;2022-11-13T13:55:34;100987.46;;;11.62;96.68
62926;BME280;55732;52.248;-0.844;2022-11-13T13:58:11;100980.24;;;11.66;96.50
62926;BME280;55732;52.248;-0.844;2022-11-13T14:00:38;100975.81;;;11.69;96.39
62926;BME280;55732;52.248;-0.844;2022-11-13T14:03:03;100975.46;;;11.71;96.22
62926;BME280;55732;52.248;-0.844;2022-11-13T14:05:40;100972.64;;;11.70;95.95
62926;BME280;55732;52.248;-0.844;2022-11-13T14:08:15;100971.60;;;11.68;95.91
62926;BME280;55732;52.248;-0.844;2022-11-13T14:10:42;100969.48;;;11.65;95.93
62926;BME280;55732;52.248;-0.844;2022-11-13T14:13:12;100966.83;;;11.66;96.22